Time;durP1;ratioP1;P1;durP2;ratioP2;P2;SDS_P1;SDS_P2;PMS_P1;PMS_P2;Temp;Humidity;BMP_temperature;BMP_pressure;BME280_temperature;BME280_humidity;BME280_pressure;Samples;Min_cycle;Max_cycle;Signal;HPM_P1;HPM_P2
2022/09/19 00:01:47;;;;;;;0.80;0.75;;;;;;;;;;5038036;28;20029;-83
2022/09/19 00:04:24;;;;;;;0.30;0.30;;;;;;;;;;5036102;28;20376;-87
2022/09/19 00:06:51;;;;;;;0.30;0.30;;;;;;;;;;5016916;28;20139;-87
2022/09/19 00:09:21;;;;;;;0.20;0.20;;;;;;;;;;5035201;28;20025;-83
2022/09/19 00:11:48;;;;;;;0.30;0.30;;;;;;;;;;5018444;28;20675;-83
2022/09/19 00:14:15;;;;;;;0.40;0.40;;;;;;;;;;5032149;28;21858;-83
2022/09/19 00:16:47;;;;;;;3.85;0.60;;;;;;;;;;5018013;28;20040;-84
2022/09/19 00:19:15;;;;;;;0.35;0.35;;;;;;;;;;5038722;28;20095;-86
2022/09/19 00:21:43;;;;;;;0.30;0.30;;;;;;;;;;5041601;28;20052;-89
2022/09/19 00:27:03;;;;;;;;;;;;;;;;;;5043388;28;20102;-85
2022/09/19 00:29:28;;;;;;;0.75;0.43;;;;;;;;;;5042373;28;19912;-87
2022/09/19 00:31:53;;;;;;;0.50;0.47;;;;;;;;;;5059049;28;20036;-87
2022/09/19 00:34:19;;;;;;;0.20;0.20;;;;;;;;;;5040747;28;20074;-88
2022/09/19 00:36:45;;;;;;;0.30;0.30;;;;;;;;;;5041087;28;20029;-89
2022/09/19 00:39:15;;;;;;;0.40;0.40;;;;;;;;;;5042440;28;20693;-86
2022/09/19 00:41:41;;;;;;;0.30;0.30;;;;;;;;;;5038980;28;21434;-83
2022/09/19 00:44:22;;;;;;;0.40;0.40;;;;;;;;;;5042125;28;20032;-87
2022/09/19 00:47:00;;;;;;;0.28;0.28;;;;;;;;;;5037964;28;21619;-85
2022/09/19 00:49:28;;;;;;;0.30;0.30;;;;;;;;;;5040021;28;20036;-87
2022/09/19 00:51:59;;;;;;;0.63;0.63;;;;;;;;;;5019284;28;20058;-86
2022/09/19 00:54:33;;;;;;;0.30;0.30;;;;;;;;;;5021339;28;20116;-86
2022/09/19 00:57:00;;;;;;;0.60;0.43;;;;;;;;;;5032612;28;21174;-83
2022/09/19 00:59:29;;;;;;;0.40;0.40;;;;;;;;;;5029072;28;20042;-86
2022/09/19 01:01:56;;;;;;;0.30;0.30;;;;;;;;;;5031137;28;20837;-84
2022/09/19 01:04:24;;;;;;;0.43;0.43;;;;;;;;;;5031180;28;20079;-83
2022/09/19 01:07:18;;;;;;;0.40;0.40;;;;;;;;;;5013118;28;20037;-87
2022/09/19 01:10:16;;;;;;;3.40;0.47;;;;;;;;;;5031637;28;20029;-85
2022/09/19 01:13:21;;;;;;;0.30;0.30;;;;;;;;;;5016421;28;20028;-85
2022/09/19 01:16:33;;;;;;;0.20;0.20;;;;;;;;;;5036502;28;20430;-87
2022/09/19 01:19:13;;;;;;;5.13;0.30;;;;;;;;;;5034309;28;20029;-88
2022/09/19 01:22:08;;;;;;;0.30;0.30;;;;;;;;;;5032218;28;20035;-88
2022/09/19 01:24:49;;;;;;;0.50;0.40;;;;;;;;;;5029054;28;20132;-85
2022/09/19 01:27:38;;;;;;;0.35;0.30;;;;;;;;;;5047842;28;20037;-85
2022/09/19 01:30:09;;;;;;;0.40;0.30;;;;;;;;;;5053127;28;20052;-85
2022/09/19 01:32:43;;;;;;;0.30;0.30;;;;;;;;;;5053606;28;20047;-85
2022/09/19 01:35:13;;;;;;;0.30;0.30;;;;;;;;;;5058627;28;20027;-87
2022/09/19 01:37:45;;;;;;;0.38;0.38;;;;;;;;;;5052694;28;20521;-88
2022/09/19 01:40:13;;;;;;;0.63;0.63;;;;;;;;;;5054624;28;20032;-84
2022/09/19 01:42:56;;;;;;;0.30;0.30;;;;;;;;;;5052709;28;20138;-86
2022/09/19 01:45:36;;;;;;;0.25;0.25;;;;;;;;;;5047881;28;20390;-86
2022/09/19 01:48:12;;;;;;;3.50;0.88;;;;;;;;;;5025887;28;20398;-85
2022/09/19 01:50:45;;;;;;;0.77;0.35;;;;;;;;;;5043699;28;20025;-88
2022/09/19 01:53:26;;;;;;;0.73;0.60;;;;;;;;;;5024153;28;21899;-83
2022/09/19 01:56:10;;;;;;;0.55;0.30;;;;;;;;;;5021151;28;20091;-83
2022/09/19 01:59:01;;;;;;;2.40;0.38;;;;;;;;;;5018249;28;20087;-86
2022/09/19 02:01:36;;;;;;;0.70;0.70;;;;;;;;;;5024675;28;21113;-87
2022/09/19 02:04:08;;;;;;;0.52;0.50;;;;;;;;;;5040537;28;20084;-88
2022/09/19 02:06:48;;;;;;;;;;;;;;;;;;5039602;28;20029;-84
2022/09/19 02:09:36;;;;;;;3.03;0.52;;;;;;;;;;5023640;28;21897;-83
2022/09/19 02:12:03;;;;;;;0.55;0.55;;;;;;;;;;5037652;28;20029;-86
2022/09/19 02:14:33;;;;;;;0.55;0.50;;;;;;;;;;5040340;28;20518;-86
2022/09/19 02:17:04;;;;;;;0.70;0.47;;;;;;;;;;5039490;28;20018;-85
2022/09/19 02:19:50;;;;;;;3.08;0.73;;;;;;;;;;5037790;28;20043;-85
2022/09/19 02:22:32;;;;;;;0.47;0.47;;;;;;;;;;5046926;28;20044;-86
2022/09/19 02:25:05;;;;;;;1.38;0.70;;;;;;;;;;5035750;28;20033;-86
2022/09/19 02:27:48;;;;;;;0.60;0.60;;;;;;;;;;5053069;28;20029;-86
2022/09/19 02:30:15;;;;;;;0.50;0.50;;;;;;;;;;5053869;28;20020;-86
2022/09/19 02:32:47;;;;;;;0.70;0.50;;;;;;;;;;5051863;28;20017;-87
2022/09/19 02:35:14;;;;;;;1.55;0.63;;;;;;;;;;5046418;28;20024;-85
2022/09/19 02:37:55;;;;;;;2.25;0.65;;;;;;;;;;5038974;28;20036;-86
2022/09/19 02:40:25;;;;;;;0.52;0.52;;;;;;;;;;5040849;28;20708;-84
2022/09/19 02:43:25;;;;;;;0.63;0.63;;;;;;;;;;5040856;28;20029;-85
2022/09/19 02:45:55;;;;;;;0.55;0.55;;;;;;;;;;5042989;28;20040;-84
2022/09/19 02:48:26;;;;;;;0.70;0.70;;;;;;;;;;5042450;28;20028;-86
2022/09/19 02:50:59;;;;;;;0.40;0.40;;;;;;;;;;5046072;28;20048;-85
2022/09/19 02:53:29;;;;;;;0.47;0.47;;;;;;;;;;5045443;28;20040;-88
2022/09/19 02:55:59;;;;;;;4.55;0.80;;;;;;;;;;5044802;28;20037;-86
2022/09/19 02:58:29;;;;;;;0.60;0.60;;;;;;;;;;5044292;28;20052;-89
2022/09/19 03:01:19;;;;;;;0.43;0.43;;;;;;;;;;5047256;28;20024;-88
2022/09/19 03:06:37;;;;;;;3.03;0.60;;;;;;;;;;5062070;28;20509;-87
2022/09/19 03:09:05;;;;;;;0.70;0.65;;;;;;;;;;5052825;28;20036;-87
2022/09/19 03:11:33;;;;;;;5.53;0.80;;;;;;;;;;5050140;28;20082;-86
2022/09/19 03:14:00;;;;;;;0.50;0.50;;;;;;;;;;5050291;28;20130;-88
2022/09/19 03:16:31;;;;;;;1.52;0.43;;;;;;;;;;5051651;28;20027;-87
2022/09/19 03:18:57;;;;;;;1.40;0.70;;;;;;;;;;5031652;28;20394;-86
2022/09/19 03:21:25;;;;;;;3.70;0.60;;;;;;;;;;5045826;28;20041;-84
2022/09/19 03:23:58;;;;;;;0.85;0.52;;;;;;;;;;5048973;28;20025;-85
2022/09/19 03:26:30;;;;;;;0.50;0.50;;;;;;;;;;5051593;28;20363;-88
2022/09/19 03:28:58;;;;;;;1.20;0.98;;;;;;;;;;5051853;28;20029;-87
2022/09/19 03:31:25;;;;;;;3.53;0.90;;;;;;;;;;5051518;28;20021;-87
2022/09/19 03:33:51;;;;;;;3.88;0.88;;;;;;;;;;5051376;28;20024;-88
2022/09/19 03:36:18;;;;;;;2.50;0.73;;;;;;;;;;5052433;28;20397;-87
2022/09/19 03:38:46;;;;;;;4.20;0.90;;;;;;;;;;5046781;28;20020;-86
2022/09/19 03:41:16;;;;;;;2.03;0.68;;;;;;;;;;5047995;28;20471;-86
2022/09/19 03:43:42;;;;;;;3.50;1.02;;;;;;;;;;5029590;28;20498;-86
2022/09/19 03:46:10;;;;;;;1.27;0.68;;;;;;;;;;5032567;28;20025;-85
2022/09/19 03:48:36;;;;;;;1.05;0.70;;;;;;;;;;5048341;28;20100;-86
2022/09/19 03:51:01;;;;;;;0.50;0.50;;;;;;;;;;5046217;28;20021;-87
2022/09/19 03:53:27;;;;;;;0.63;0.60;;;;;;;;;;5038950;28;20034;-85
2022/09/19 03:55:54;;;;;;;4.38;1.25;;;;;;;;;;5041017;28;20029;-86
2022/09/19 03:58:19;;;;;;;2.83;0.75;;;;;;;;;;5041487;28;20013;-86
2022/09/19 04:00:45;;;;;;;3.20;0.75;;;;;;;;;;5039209;28;20730;-85
2022/09/19 04:03:10;;;;;;;4.95;0.85;;;;;;;;;;5037775;28;20037;-87
2022/09/19 04:05:36;;;;;;;1.65;1.02;;;;;;;;;;5041137;28;20040;-86
2022/09/19 04:08:02;;;;;;;6.75;1.08;;;;;;;;;;5039262;28;20021;-88
2022/09/19 04:10:27;;;;;;;2.85;0.70;;;;;;;;;;5025546;28;20025;-86
2022/09/19 04:12:52;;;;;;;1.13;0.73;;;;;;;;;;5023365;28;20063;-87
2022/09/19 04:15:18;;;;;;;1.10;0.65;;;;;;;;;;5038712;28;20065;-85
2022/09/19 04:17:43;;;;;;;1.83;0.60;;;;;;;;;;5025415;28;20059;-84
2022/09/19 04:20:10;;;;;;;0.88;0.70;;;;;;;;;;5036986;28;20036;-86
2022/09/19 04:22:37;;;;;;;0.85;0.77;;;;;;;;;;5047943;28;20021;-88
2022/09/19 04:25:10;;;;;;;0.85;0.73;;;;;;;;;;5051087;28;20025;-86
2022/09/19 04:27:37;;;;;;;1.10;0.65;;;;;;;;;;5046486;28;20021;-86
2022/09/19 04:30:04;;;;;;;1.85;0.60;;;;;;;;;;5049847;28;20029;-87
2022/09/19 04:32:30;;;;;;;5.20;0.73;;;;;;;;;;5052699;28;20024;-87
2022/09/19 04:34:57;;;;;;;2.13;1.05;;;;;;;;;;5036121;28;20025;-86
2022/09/19 04:37:22;;;;;;;4.03;1.10;;;;;;;;;;5038770;28;20039;-86
2022/09/19 04:39:48;;;;;;;3.67;0.60;;;;;;;;;;5055577;28;20017;-85
2022/09/19 04:42:14;;;;;;;3.22;0.82;;;;;;;;;;5054469;28;20029;-86
2022/09/19 04:44:39;;;;;;;2.50;0.70;;;;;;;;;;5036731;28;20063;-85
2022/09/19 04:47:06;;;;;;;2.67;1.00;;;;;;;;;;5049128;28;20045;-86
2022/09/19 04:49:39;;;;;;;6.47;1.00;;;;;;;;;;5033167;28;20489;-85
2022/09/19 04:52:12;;;;;;;6.78;0.90;;;;;;;;;;5047331;28;20541;-85
2022/09/19 04:54:38;;;;;;;2.80;0.80;;;;;;;;;;5046343;28;20026;-84
2022/09/19 04:57:05;;;;;;;2.40;0.50;;;;;;;;;;5044237;28;20074;-84
2022/09/19 04:59:32;;;;;;;2.70;0.80;;;;;;;;;;5024547;28;20040;-86
2022/09/19 05:01:58;;;;;;;2.08;0.70;;;;;;;;;;5042795;28;20152;-85
2022/09/19 05:04:24;;;;;;;1.45;1.05;;;;;;;;;;5045151;28;20072;-84
2022/09/19 05:06:51;;;;;;;1.05;0.57;;;;;;;;;;5049207;28;20017;-83
2022/09/19 05:09:17;;;;;;;3.88;1.40;;;;;;;;;;5032725;28;20039;-84
2022/09/19 05:11:43;;;;;;;2.35;0.90;;;;;;;;;;5051459;28;20021;-86
2022/09/19 05:14:09;;;;;;;12.48;1.27;;;;;;;;;;5051648;28;20044;-85
2022/09/19 05:16:35;;;;;;;2.92;0.85;;;;;;;;;;5045299;28;20025;-84
2022/09/19 05:19:00;;;;;;;1.67;1.27;;;;;;;;;;5043188;28;20053;-85
2022/09/19 05:21:26;;;;;;;1.02;0.60;;;;;;;;;;5038454;28;20028;-85
2022/09/19 05:23:52;;;;;;;4.10;1.17;;;;;;;;;;5059237;28;20016;-85
2022/09/19 05:26:17;;;;;;;3.83;1.20;;;;;;;;;;5059677;28;20048;-84
2022/09/19 05:28:45;;;;;;;8.43;1.08;;;;;;;;;;5057649;28;20020;-85
2022/09/19 05:31:12;;;;;;;1.00;0.82;;;;;;;;;;5037196;28;20052;-85
2022/09/19 05:33:38;;;;;;;1.73;0.73;;;;;;;;;;5050089;28;20029;-86
2022/09/19 05:36:04;;;;;;;5.05;0.88;;;;;;;;;;5055836;28;20059;-84
2022/09/19 05:38:31;;;;;;;5.20;1.33;;;;;;;;;;5053994;28;20479;-84
2022/09/19 05:40:59;;;;;;;3.15;0.93;;;;;;;;;;5059401;28;20048;-85
2022/09/19 05:43:25;;;;;;;2.97;0.90;;;;;;;;;;5045511;28;20044;-85
2022/09/19 05:45:52;;;;;;;10.90;1.60;;;;;;;;;;5046914;28;20032;-85
2022/09/19 05:48:19;;;;;;;3.40;0.90;;;;;;;;;;5043986;28;20025;-85
2022/09/19 05:50:45;;;;;;;7.38;1.27;;;;;;;;;;5048109;28;20033;-84
2022/09/19 05:55:55;;;;;;;0.73;0.55;;;;;;;;;;5046011;28;20037;-88
2022/09/19 05:58:21;;;;;;;3.28;0.80;;;;;;;;;;5044190;28;20026;-86
2022/09/19 06:00:47;;;;;;;3.70;0.98;;;;;;;;;;5043506;28;20056;-87
2022/09/19 06:03:16;;;;;;;3.42;1.67;;;;;;;;;;5043072;28;20025;-87
2022/09/19 06:05:43;;;;;;;3.80;0.80;;;;;;;;;;5027678;28;20017;-86
2022/09/19 06:08:11;;;;;;;7.50;1.33;;;;;;;;;;5048055;28;20052;-87
2022/09/19 06:10:39;;;;;;;5.15;0.95;;;;;;;;;;5033754;28;20037;-87
2022/09/19 06:13:11;;;;;;;3.40;1.00;;;;;;;;;;5048325;28;20029;-85
2022/09/19 06:15:37;;;;;;;2.83;1.33;;;;;;;;;;5048577;28;20035;-88
2022/09/19 06:18:02;;;;;;;1.77;1.00;;;;;;;;;;5045021;28;20041;-87
2022/09/19 06:20:28;;;;;;;3.33;1.02;;;;;;;;;;5042132;28;20025;-86
2022/09/19 06:22:58;;;;;;;2.67;1.08;;;;;;;;;;5059850;28;20017;-86
2022/09/19 06:25:25;;;;;;;7.22;1.17;;;;;;;;;;5061962;28;20028;-87
2022/09/19 06:28:05;;;;;;;3.60;1.20;;;;;;;;;;5042703;28;20020;-85
2022/09/19 06:30:31;;;;;;;6.75;1.05;;;;;;;;;;5047162;28;20021;-86
2022/09/19 06:32:57;;;;;;;3.72;1.67;;;;;;;;;;5045671;28;20090;-86
2022/09/19 06:35:27;;;;;;;4.72;1.10;;;;;;;;;;5065326;28;20021;-87
2022/09/19 06:38:01;;;;;;;9.70;1.30;;;;;;;;;;5061442;28;20370;-82
2022/09/19 06:40:30;;;;;;;2.50;1.08;;;;;;;;;;5061211;28;20033;-83
2022/09/19 06:43:03;;;;;;;8.27;1.45;;;;;;;;;;5068401;28;20032;-84
2022/09/19 06:45:38;;;;;;;3.30;1.52;;;;;;;;;;5052608;28;20025;-83
2022/09/19 06:48:05;;;;;;;6.03;1.50;;;;;;;;;;5054907;28;20084;-82
2022/09/19 06:50:31;;;;;;;4.20;1.13;;;;;;;;;;5064708;28;20048;-84
2022/09/19 06:52:57;;;;;;;7.00;1.30;;;;;;;;;;5048444;28;20028;-82
2022/09/19 06:55:25;;;;;;;7.63;1.60;;;;;;;;;;5055462;28;20029;-83
2022/09/19 06:57:58;;;;;;;4.90;1.10;;;;;;;;;;5036704;28;20017;-83
2022/09/19 07:00:25;;;;;;;10.93;1.55;;;;;;;;;;5037717;28;20017;-82
2022/09/19 07:03:00;;;;;;;5.07;1.63;;;;;;;;;;5056298;28;20028;-83
2022/09/19 07:05:26;;;;;;;2.75;1.10;;;;;;;;;;5050166;28;20024;-83
2022/09/19 07:07:52;;;;;;;1.73;0.90;;;;;;;;;;5051499;28;20082;-82
2022/09/19 07:10:19;;;;;;;2.50;1.10;;;;;;;;;;5054905;28;20028;-83
2022/09/19 07:13:01;;;;;;;2.95;1.30;;;;;;;;;;5054615;28;20020;-83
2022/09/19 07:15:36;;;;;;;4.78;1.20;;;;;;;;;;5066070;28;20020;-84
2022/09/19 07:18:07;;;;;;;5.95;1.08;;;;;;;;;;5075245;28;20028;-83
2022/09/19 07:20:34;;;;;;;3.43;1.20;;;;;;;;;;5076796;28;20513;-83
2022/09/19 07:23:02;;;;;;;1.83;1.23;;;;;;;;;;5060594;28;20021;-83
2022/09/19 07:25:29;;;;;;;4.35;1.10;;;;;;;;;;5055733;28;20398;-83
2022/09/19 07:27:59;;;;;;;4.28;0.68;;;;;;;;;;5054212;28;20048;-82
2022/09/19 07:30:25;;;;;;;7.28;1.40;;;;;;;;;;5047637;28;20028;-82
2022/09/19 07:32:54;;;;;;;5.18;1.00;;;;;;;;;;5054990;28;20394;-82
2022/09/19 07:35:19;;;;;;;3.38;0.95;;;;;;;;;;5054609;28;20028;-82
2022/09/19 07:37:50;;;;;;;7.30;1.55;;;;;;;;;;5053654;28;20371;-81
2022/09/19 07:40:16;;;;;;;1.77;0.90;;;;;;;;;;5053403;28;20032;-81
2022/09/19 07:42:42;;;;;;;4.60;1.20;;;;;;;;;;5044237;28;20120;-83
2022/09/19 07:45:07;;;;;;;3.83;1.02;;;;;;;;;;5058897;28;20020;-82
2022/09/19 07:47:33;;;;;;;5.75;1.35;;;;;;;;;;5048539;28;20021;-84
2022/09/19 07:49:58;;;;;;;2.63;1.25;;;;;;;;;;5059368;28;20036;-84
2022/09/19 07:52:24;;;;;;;2.42;1.15;;;;;;;;;;5044564;28;20027;-82
2022/09/19 07:54:50;;;;;;;6.28;1.23;;;;;;;;;;5064735;28;20017;-84
2022/09/19 07:57:15;;;;;;;6.85;1.30;;;;;;;;;;5054818;28;20024;-83
2022/09/19 07:59:41;;;;;;;2.45;1.05;;;;;;;;;;5055376;28;20391;-84
2022/09/19 08:02:08;;;;;;;8.25;0.90;;;;;;;;;;5054226;28;20083;-83
2022/09/19 08:04:34;;;;;;;4.53;1.10;;;;;;;;;;5054900;28;20471;-83
2022/09/19 08:07:00;;;;;;;4.57;1.10;;;;;;;;;;5056219;28;20040;-82
2022/09/19 08:09:26;;;;;;;6.38;1.05;;;;;;;;;;5062746;28;20021;-85
2022/09/19 08:11:51;;;;;;;3.85;1.05;;;;;;;;;;5062698;28;20040;-85
2022/09/19 08:14:16;;;;;;;2.00;0.73;;;;;;;;;;5061037;28;20033;-84
2022/09/19 08:16:43;;;;;;;5.80;1.48;;;;;;;;;;5038636;28;20014;-84
2022/09/19 08:19:09;;;;;;;3.13;0.98;;;;;;;;;;5043853;28;20022;-86
2022/09/19 08:21:34;;;;;;;1.73;1.23;;;;;;;;;;5050385;28;20020;-86
2022/09/19 08:24:00;;;;;;;5.57;1.38;;;;;;;;;;5062401;28;20293;-84
2022/09/19 08:26:25;;;;;;;1.83;0.93;;;;;;;;;;5063387;28;20025;-86
2022/09/19 08:28:51;;;;;;;5.57;0.88;;;;;;;;;;5062010;28;20017;-85
2022/09/19 08:31:17;;;;;;;6.38;1.15;;;;;;;;;;5061832;28;20442;-86
2022/09/19 08:33:42;;;;;;;4.25;1.25;;;;;;;;;;5080299;28;20034;-86
2022/09/19 08:36:10;;;;;;;4.47;1.75;;;;;;;;;;5060826;28;20433;-86
2022/09/19 08:38:35;;;;;;;8.48;1.13;;;;;;;;;;5057113;28;20021;-86
2022/09/19 08:41:07;;;;;;;2.28;1.08;;;;;;;;;;5064805;28;20044;-85
2022/09/19 08:43:57;;;;;;;4.65;1.70;;;;;;;;;;5045061;28;20635;-85
2022/09/19 08:46:35;;;;;;;2.88;1.13;;;;;;;;;;5042745;28;20033;-85
2022/09/19 08:49:10;;;;;;;2.60;0.85;;;;;;;;;;5043129;28;20021;-85
2022/09/19 08:51:58;;;;;;;5.05;1.40;;;;;;;;;;5047713;28;20028;-85
2022/09/19 08:54:30;;;;;;;6.50;1.58;;;;;;;;;;5065748;28;20028;-85
2022/09/19 08:56:57;;;;;;;2.25;0.75;;;;;;;;;;5060530;28;20072;-84
2022/09/19 08:59:27;;;;;;;3.00;0.90;;;;;;;;;;5057163;28;20027;-83
2022/09/19 09:01:59;;;;;;;6.95;1.48;;;;;;;;;;5057134;28;20037;-84
2022/09/19 09:04:31;;;;;;;8.15;1.45;;;;;;;;;;5060442;28;20215;-84
2022/09/19 09:07:25;;;;;;;7.05;1.45;;;;;;;;;;5060836;28;20028;-83
2022/09/19 09:10:21;;;;;;;4.82;1.30;;;;;;;;;;5021113;28;20033;-83
2022/09/19 09:12:58;;;;;;;5.68;1.02;;;;;;;;;;5031247;28;20036;-85
2022/09/19 09:15:36;;;;;;;1.50;1.20;;;;;;;;;;5056036;28;20025;-84
2022/09/19 09:18:14;;;;;;;7.47;1.30;;;;;;;;;;5065169;28;20063;-84
2022/09/19 09:20:49;;;;;;;5.80;1.52;;;;;;;;;;5042492;28;20033;-84
2022/09/19 09:23:21;;;;;;;2.85;1.38;;;;;;;;;;5045132;28;20020;-84
2022/09/19 09:25:57;;;;;;;2.20;1.27;;;;;;;;;;5049273;28;20044;-84
2022/09/19 09:28:39;;;;;;;2.92;1.33;;;;;;;;;;5047890;28;20110;-84
2022/09/19 09:31:24;;;;;;;2.95;1.25;;;;;;;;;;5057613;28;20040;-83
2022/09/19 09:34:27;;;;;;;4.45;1.27;;;;;;;;;;5040400;28;20544;-84
2022/09/19 09:37:03;;;;;;;5.80;1.08;;;;;;;;;;5036287;28;20024;-85
2022/09/19 09:39:50;;;;;;;1.98;1.08;;;;;;;;;;5053371;28;20029;-85
2022/09/19 09:42:21;;;;;;;4.97;1.80;;;;;;;;;;5044445;28;20025;-84
2022/09/19 09:44:58;;;;;;;3.17;1.20;;;;;;;;;;5070466;28;20037;-84
2022/09/19 09:47:49;;;;;;;5.18;1.80;;;;;;;;;;5074911;28;20029;-85
2022/09/19 09:50:32;;;;;;;3.15;1.20;;;;;;;;;;5063356;28;20021;-84
2022/09/19 09:53:17;;;;;;;3.33;1.00;;;;;;;;;;5058553;28;20085;-85
2022/09/19 09:58:55;;;;;;;2.65;1.30;;;;;;;;;;5061027;28;20081;-85
2022/09/19 10:04:30;;;;;;;1.33;1.15;;;;;;;;;;5061619;28;20059;-85
2022/09/19 10:07:16;;;;;;;7.68;1.92;;;;;;;;;;5063415;28;20228;-85
2022/09/19 10:10:03;;;;;;;3.88;1.10;;;;;;;;;;5050520;28;20025;-84
2022/09/19 10:12:40;;;;;;;2.65;1.15;;;;;;;;;;5061615;28;20017;-85
2022/09/19 10:15:13;;;;;;;0.90;0.85;;;;;;;;;;5055616;28;20096;-85
2022/09/19 10:17:45;;;;;;;2.72;1.10;;;;;;;;;;5037460;28;20047;-84
2022/09/19 10:20:18;;;;;;;4.28;1.23;;;;;;;;;;5045461;28;20123;-85
2022/09/19 10:22:44;;;;;;;4.32;1.48;;;;;;;;;;5069026;28;20030;-85
2022/09/19 10:25:13;;;;;;;3.30;1.45;;;;;;;;;;5050191;28;20047;-85
2022/09/19 10:27:41;;;;;;;2.72;1.20;;;;;;;;;;5064139;28;20036;-85
2022/09/19 10:30:27;;;;;;;2.47;1.15;;;;;;;;;;5060631;28;20021;-86
2022/09/19 10:32:54;;;;;;;3.72;1.17;;;;;;;;;;5066629;28;20012;-85
2022/09/19 10:35:33;;;;;;;2.92;1.10;;;;;;;;;;5058948;28;20028;-85
2022/09/19 10:38:16;;;;;;;3.38;1.20;;;;;;;;;;5072903;28;20014;-86
2022/09/19 10:40:52;;;;;;;3.55;1.17;;;;;;;;;;5065329;28;20037;-85
2022/09/19 10:43:32;;;;;;;5.18;1.00;;;;;;;;;;5050338;28;20014;-85
2022/09/19 10:46:06;;;;;;;1.58;0.80;;;;;;;;;;5066465;28;20039;-85
2022/09/19 10:48:33;;;;;;;3.03;0.82;;;;;;;;;;5051118;28;20045;-84
2022/09/19 10:50:59;;;;;;;1.30;1.20;;;;;;;;;;5055566;28;20044;-84
2022/09/19 10:53:30;;;;;;;4.10;0.73;;;;;;;;;;5045565;28;20025;-84
2022/09/19 10:56:00;;;;;;;2.03;0.85;;;;;;;;;;5040337;28;20037;-86
2022/09/19 10:58:27;;;;;;;2.22;0.98;;;;;;;;;;5059317;28;20040;-86
2022/09/19 11:01:01;;;;;;;3.58;0.95;;;;;;;;;;5055781;28;20040;-85
2022/09/19 11:03:35;;;;;;;2.40;0.85;;;;;;;;;;5050318;28;20103;-86
2022/09/19 11:06:13;;;;;;;1.67;0.70;;;;;;;;;;5057388;28;20066;-85
2022/09/19 11:08:47;;;;;;;3.28;1.05;;;;;;;;;;5055638;28;20482;-85
2022/09/19 11:11:57;;;;;;;3.28;0.73;;;;;;;;;;5025614;28;20490;-85
2022/09/19 11:14:33;;;;;;;1.80;0.93;;;;;;;;;;5036491;28;20032;-85
2022/09/19 11:17:29;;;;;;;5.90;1.15;;;;;;;;;;5051247;28;20048;-85
2022/09/19 11:20:25;;;;;;;5.18;1.33;;;;;;;;;;5028413;28;20044;-85
2022/09/19 11:23:16;;;;;;;4.70;1.15;;;;;;;;;;5043539;28;20075;-85
2022/09/19 11:26:04;;;;;;;4.55;1.00;;;;;;;;;;5045558;28;20059;-85
2022/09/19 11:28:48;;;;;;;2.47;0.88;;;;;;;;;;5027681;28;20025;-85
2022/09/19 11:31:33;;;;;;;3.65;1.25;;;;;;;;;;5025893;28;20033;-85
2022/09/19 11:34:26;;;;;;;4.07;1.15;;;;;;;;;;5044773;28;20067;-85
2022/09/19 11:37:10;;;;;;;1.20;0.75;;;;;;;;;;5045083;28;20028;-85
2022/09/19 11:39:56;;;;;;;2.35;1.20;;;;;;;;;;5044401;28;20024;-85
2022/09/19 11:42:22;;;;;;;3.70;1.23;;;;;;;;;;5054483;28;20402;-84
2022/09/19 11:45:00;;;;;;;5.30;1.15;;;;;;;;;;5053914;28;20475;-85
2022/09/19 11:47:31;;;;;;;1.92;1.08;;;;;;;;;;5033916;28;20495;-86
2022/09/19 11:50:08;;;;;;;1.57;0.77;;;;;;;;;;5046220;28;20037;-85
2022/09/19 11:52:39;;;;;;;2.45;1.17;;;;;;;;;;5055118;28;20463;-85
2022/09/19 11:55:35;;;;;;;1.17;0.80;;;;;;;;;;5045423;28;20040;-85
2022/09/19 11:58:12;;;;;;;6.03;1.00;;;;;;;;;;5054104;28;20025;-84
2022/09/19 12:01:05;;;;;;;3.28;0.90;;;;;;;;;;5054815;28;20098;-85
2022/09/19 12:03:43;;;;;;;3.33;0.85;;;;;;;;;;5034917;28;20035;-85
2022/09/19 12:06:42;;;;;;;4.15;0.95;;;;;;;;;;5023467;28;20493;-85
2022/09/19 12:09:14;;;;;;;1.48;0.77;;;;;;;;;;5054229;28;20028;-84
2022/09/19 12:11:51;;;;;;;2.38;0.90;;;;;;;;;;5053991;28;20498;-85
2022/09/19 12:14:23;;;;;;;2.78;0.95;;;;;;;;;;5036057;28;20021;-84
2022/09/19 12:16:54;;;;;;;5.32;1.50;;;;;;;;;;5040185;28;20037;-85
2022/09/19 12:19:26;;;;;;;1.55;1.05;;;;;;;;;;5037536;28;20097;-84
2022/09/19 12:21:57;;;;;;;0.73;0.73;;;;;;;;;;5053241;28;20029;-84
2022/09/19 12:27:31;;;;;;;2.30;1.10;;;;;;;;;;5052210;28;20028;-84
2022/09/19 12:30:08;;;;;;;3.90;1.00;;;;;;;;;;5052263;28;20399;-84
2022/09/19 12:32:46;;;;;;;4.43;1.40;;;;;;;;;;5044476;28;20032;-85
2022/09/19 12:35:35;;;;;;;4.25;0.90;;;;;;;;;;5047542;28;20032;-85
2022/09/19 12:38:35;;;;;;;2.22;0.95;;;;;;;;;;5048530;28;20013;-85
2022/09/19 12:41:24;;;;;;;1.17;0.93;;;;;;;;;;5048050;28;20025;-85
2022/09/19 12:44:08;;;;;;;4.55;1.00;;;;;;;;;;5014696;28;20503;-85
2022/09/19 12:46:57;;;;;;;1.80;0.75;;;;;;;;;;5033611;28;20394;-85
2022/09/19 12:49:31;;;;;;;1.35;0.65;;;;;;;;;;5057373;28;20052;-84
2022/09/19 12:52:26;;;;;;;3.40;0.93;;;;;;;;;;5058536;28;20055;-86
2022/09/19 12:55:15;;;;;;;6.05;1.17;;;;;;;;;;5058064;28;20020;-86
2022/09/19 12:57:46;;;;;;;3.33;0.93;;;;;;;;;;5064135;28;20017;-86
2022/09/19 13:00:13;;;;;;;3.60;1.13;;;;;;;;;;5062350;28;20034;-85
2022/09/19 13:02:44;;;;;;;2.15;0.60;;;;;;;;;;5075897;28;20029;-84
2022/09/19 13:05:22;;;;;;;2.72;0.75;;;;;;;;;;5062171;28;20475;-85
2022/09/19 13:07:56;;;;;;;2.20;0.80;;;;;;;;;;5059492;28;20031;-85
2022/09/19 13:10:36;;;;;;;2.97;1.05;;;;;;;;;;5059992;28;20029;-85
2022/09/19 13:13:28;;;;;;;1.85;0.80;;;;;;;;;;5059200;28;20394;-85
2022/09/19 13:16:13;;;;;;;1.30;0.88;;;;;;;;;;5036945;28;20049;-86
2022/09/19 13:24:57;;;;;;;5.95;1.17;;;;;;;;;;5059454;28;20032;-85
2022/09/19 13:27:25;;;;;;;2.17;1.10;;;;;;;;;;5056229;28;20037;-85
2022/09/19 13:29:53;;;;;;;5.00;0.88;;;;;;;;;;5052191;28;20037;-86
2022/09/19 13:32:53;;;;;;;2.10;0.73;;;;;;;;;;5057697;28;20084;-85
2022/09/19 13:35:22;;;;;;;3.33;0.77;;;;;;;;;;5050700;28;20060;-85
2022/09/19 13:37:51;;;;;;;3.28;0.70;;;;;;;;;;5057089;28;20104;-85
2022/09/19 13:40:21;;;;;;;0.90;0.60;;;;;;;;;;5042219;28;20051;-84
2022/09/19 13:42:50;;;;;;;3.17;0.80;;;;;;;;;;5045467;28;20029;-85
2022/09/19 13:45:40;;;;;;;7.80;0.85;;;;;;;;;;5052207;28;20075;-86
2022/09/19 13:48:47;;;;;;;3.08;0.95;;;;;;;;;;5050658;28;20075;-85
2022/09/19 13:51:39;;;;;;;4.20;0.80;;;;;;;;;;5039638;28;20033;-85
2022/09/19 13:54:22;;;;;;;2.67;0.65;;;;;;;;;;5034712;28;20781;-85
2022/09/19 13:57:02;;;;;;;;;;;;;;;;;;5044331;28;20088;-85
2022/09/19 13:59:35;;;;;;;3.60;0.80;;;;;;;;;;5043362;28;19925;-84
2022/09/19 14:02:19;;;;;;;2.33;0.70;;;;;;;;;;5026302;28;20055;-85
2022/09/19 14:05:00;;;;;;;2.40;0.68;;;;;;;;;;5046542;28;20048;-85
2022/09/19 14:07:32;;;;;;;0.63;0.63;;;;;;;;;;5026413;28;20021;-84
2022/09/19 14:10:06;;;;;;;0.60;0.60;;;;;;;;;;5046920;28;20138;-87
2022/09/19 14:12:38;;;;;;;2.17;0.60;;;;;;;;;;5044537;28;20037;-86
2022/09/19 14:15:41;;;;;;;1.27;0.80;;;;;;;;;;5030414;28;20037;-84
2022/09/19 14:18:09;;;;;;;2.25;0.82;;;;;;;;;;5030240;28;20992;-85
2022/09/19 14:21:01;;;;;;;0.40;0.40;;;;;;;;;;5046073;28;20662;-85
2022/09/19 14:23:32;;;;;;;0.95;0.60;;;;;;;;;;5046800;28;20033;-88
2022/09/19 14:26:06;;;;;;;1.85;0.82;;;;;;;;;;5045890;28;21098;-87
2022/09/19 14:29:03;;;;;;;1.52;0.60;;;;;;;;;;5024810;28;20021;-85
2022/09/19 14:31:55;;;;;;;0.90;0.45;;;;;;;;;;5044479;28;20091;-86
2022/09/19 14:34:20;;;;;;;;;;;;;;;;;;5026747;28;20402;-84
2022/09/19 14:36:55;;;;;;;2.05;0.75;;;;;;;;;;5042024;28;20366;-86
2022/09/19 14:39:35;;;;;;;1.08;0.68;;;;;;;;;;5025680;28;20110;-85
2022/09/19 14:42:19;;;;;;;0.70;0.70;;;;;;;;;;5038439;28;20035;-86
2022/09/19 14:45:11;;;;;;;1.17;0.80;;;;;;;;;;5043256;28;20033;-86
2022/09/19 14:47:38;;;;;;;;;;;;;;;;;;5051978;28;20029;-84
2022/09/19 14:50:19;;;;;;;0.85;0.65;;;;;;;;;;5054722;28;19952;-85
2022/09/19 14:52:58;;;;;;;2.03;0.67;;;;;;;;;;5050044;28;20033;-86
2022/09/19 14:55:27;;;;;;;1.75;0.77;;;;;;;;;;5026909;28;20703;-86
2022/09/19 14:57:54;;;;;;;3.03;1.05;;;;;;;;;;5026704;28;20421;-86
2022/09/19 15:00:34;;;;;;;3.45;1.15;;;;;;;;;;5040936;28;20033;-87
2022/09/19 15:03:13;;;;;;;12.50;1.45;;;;;;;;;;5023631;28;20033;-85
2022/09/19 15:05:42;;;;;;;4.85;1.20;;;;;;;;;;5042193;28;20033;-87
2022/09/19 15:08:26;;;;;;;3.17;0.98;;;;;;;;;;5034328;28;20066;-86
2022/09/19 15:11:00;;;;;;;4.07;1.45;;;;;;;;;;5044195;28;20696;-86
2022/09/19 15:13:26;;;;;;;5.43;1.33;;;;;;;;;;5042202;28;20033;-86
2022/09/19 15:16:07;;;;;;;3.78;1.00;;;;;;;;;;5027597;28;20059;-86
2022/09/19 15:18:38;;;;;;;1.25;1.10;;;;;;;;;;5033061;28;20020;-85
2022/09/19 15:21:06;;;;;;;7.57;2.47;;;;;;;;;;5052578;28;20021;-86
2022/09/19 15:23:34;;;;;;;5.50;2.03;;;;;;;;;;5051511;28;20056;-87
2022/09/19 15:26:06;;;;;;;5.22;1.95;;;;;;;;;;5052208;28;20104;-87
2022/09/19 15:28:39;;;;;;;3.67;1.50;;;;;;;;;;5051615;28;20025;-87
2022/09/19 15:31:24;;;;;;;8.20;1.73;;;;;;;;;;5035716;28;20041;-87
2022/09/19 15:34:12;;;;;;;4.90;1.10;;;;;;;;;;5038582;28;20096;-87
2022/09/19 15:36:39;;;;;;;2.45;1.17;;;;;;;;;;5055204;28;20036;-86
2022/09/19 15:39:05;;;;;;;3.05;1.30;;;;;;;;;;5052981;28;20078;-87
2022/09/19 15:41:33;;;;;;;1.92;1.17;;;;;;;;;;5054678;28;20071;-87
2022/09/19 15:44:00;;;;;;;3.00;1.48;;;;;;;;;;5029534;28;20049;-87
2022/09/19 15:46:29;;;;;;;2.75;1.02;;;;;;;;;;5050611;28;20084;-86
2022/09/19 15:48:59;;;;;;;4.55;1.10;;;;;;;;;;5059395;28;20533;-86